Time;durP1;ratioP1;P1;durP2;ratioP2;P2;SDS_P1;SDS_P2;PMS_P1;PMS_P2;Temp;Humidity;BMP_temperature;BMP_pressure;BME280_temperature;BME280_humidity;BME280_pressure;Samples;Min_cycle;Max_cycle;Signal;HPM_P1;HPM_P2
2023/03/22 00:02:24;;;;;;;5.20;4.70;;;;;;;13.29;57.47;95461.19;6128120;23;20180;-87
2023/03/22 00:04:51;;;;;;;4.80;4.40;;;;;;;13.25;57.78;95447.88;6129737;23;20186;-84
2023/03/22 00:07:18;;;;;;;5.40;4.90;;;;;;;13.29;57.46;95445.69;6129878;23;20207;-85
2023/03/22 00:09:45;;;;;;;5.50;5.03;;;;;;;13.29;57.30;95446.47;6129250;23;20231;-85
2023/03/22 00:12:11;;;;;;;5.27;4.83;;;;;;;13.29;57.20;95446.47;6129093;23;20695;-85
2023/03/22 00:14:38;;;;;;;5.37;4.83;;;;;;;13.30;57.26;95444.69;6130024;23;20180;-86
2023/03/22 00:17:04;;;;;;;5.70;5.20;;;;;;;13.29;57.38;95445.69;6130421;23;20543;-85
2023/03/22 00:19:32;;;;;;;5.37;4.97;;;;;;;13.28;57.77;95439.72;6130357;23;20179;-86
2023/03/22 00:21:59;;;;;;;5.03;4.63;;;;;;;13.26;57.86;95438.34;6129960;23;20186;-86
2023/03/22 00:24:27;;;;;;;5.53;5.03;;;;;;;13.23;57.98;95431.78;6130568;23;20180;-86
2023/03/22 00:26:53;;;;;;;5.60;5.03;;;;;;;13.20;57.96;95424.41;6129869;23;20675;-85
2023/03/22 00:29:21;;;;;;;5.67;5.17;;;;;;;13.23;57.69;95436.16;6129745;23;20176;-84
2023/03/22 00:31:48;;;;;;;5.13;4.73;;;;;;;13.22;58.16;95426.81;6129636;23;20254;-84
2023/03/22 00:34:15;;;;;;;5.60;4.80;;;;;;;13.19;57.61;95425.41;6130051;23;20579;-85
2023/03/22 00:36:41;;;;;;;5.90;5.10;;;;;;;13.07;58.26;95408.84;6128722;23;20199;-85
2023/03/22 00:39:08;;;;;;;5.67;5.10;;;;;;;13.02;58.30;95414.59;6128201;23;20180;-86
2023/03/22 00:41:36;;;;;;;5.13;4.60;;;;;;;13.05;58.33;95416.00;6129974;23;20183;-84
2023/03/22 00:44:02;;;;;;;4.77;4.20;;;;;;;13.05;58.36;95416.00;6130249;23;20179;-85
2023/03/22 00:46:28;;;;;;;5.23;4.57;;;;;;;13.06;58.26;95417.59;6129014;23;20377;-86
2023/03/22 00:48:55;;;;;;;4.80;4.40;;;;;;;13.04;58.50;95417.00;6128398;23;20655;-86
2023/03/22 00:51:21;;;;;;;4.77;4.37;;;;;;;13.06;58.41;95409.84;6129022;23;20179;-86
2023/03/22 00:53:49;;;;;;;4.57;4.23;;;;;;;13.07;58.14;95403.69;6129470;23;20176;-85
2023/03/22 00:56:17;;;;;;;4.67;4.13;;;;;;;13.11;58.02;95402.28;6129558;23;20176;-86
2023/03/22 00:58:45;;;;;;;4.30;3.90;;;;;;;13.14;57.95;95396.72;6130573;23;20179;-86
2023/03/22 01:01:13;;;;;;;5.10;4.07;;;;;;;13.17;57.73;95400.72;6130129;23;20179;-86
2023/03/22 01:03:39;;;;;;;5.93;4.27;;;;;;;13.17;58.11;95411.06;6130056;23;20190;-85
2023/03/22 01:06:07;;;;;;;4.67;4.27;;;;;;;13.18;58.01;95397.94;6129097;23;20669;-86
2023/03/22 01:08:37;;;;;;;4.70;4.30;;;;;;;13.19;58.13;95409.09;6129735;23;20563;-85
2023/03/22 01:11:04;;;;;;;4.50;4.10;;;;;;;13.16;58.03;95410.28;6129462;23;20247;-86
2023/03/22 01:13:31;;;;;;;4.80;4.40;;;;;;;13.14;57.89;95410.44;6129832;23;20180;-85
2023/03/22 01:15:59;;;;;;;4.87;4.40;;;;;;;13.16;57.54;95407.69;6129041;23;20198;-85
2023/03/22 01:18:25;;;;;;;5.70;4.30;;;;;;;13.14;58.14;95407.84;6129283;23;20188;-86
2023/03/22 01:20:51;;;;;;;4.70;4.30;;;;;;;13.16;57.58;95407.69;6128270;23;20179;-84
2023/03/22 01:23:18;;;;;;;4.60;4.20;;;;;;;13.18;57.50;95404.91;6128827;23;20202;-86
2023/03/22 01:25:45;;;;;;;4.87;4.37;;;;;;;13.18;57.44;95404.91;6128595;23;20234;-87
2023/03/22 01:28:12;;;;;;;5.40;4.20;;;;;;;13.17;57.44;95398.94;6129122;23;20336;-84
2023/03/22 01:30:39;;;;;;;5.07;4.07;;;;;;;13.19;57.71;95393.56;6128847;23;20180;-85
2023/03/22 01:33:07;;;;;;;4.60;4.20;;;;;;;13.16;57.39;95402.53;6129318;23;20202;-85
2023/03/22 01:35:34;;;;;;;4.60;4.20;;;;;;;13.13;57.32;95395.91;6129939;23;20184;-85
2023/03/22 01:38:00;;;;;;;4.90;4.30;;;;;;;13.08;57.36;95387.94;6128715;23;20231;-85
2023/03/22 01:40:28;;;;;;;4.13;3.83;;;;;;;13.11;56.91;95386.75;6130435;23;20175;-85
2023/03/22 01:42:54;;;;;;;4.57;4.20;;;;;;;13.04;57.02;95384.19;6129000;23;20241;-86
2023/03/22 01:45:44;;;;;;;4.77;4.37;;;;;;;12.94;57.30;95385.53;6127946;23;20190;-86
2023/03/22 01:48:24;;;;;;;4.40;4.00;;;;;;;12.90;56.93;95382.53;6127901;23;20199;-85
2023/03/22 01:50:58;;;;;;;4.33;4.00;;;;;;;12.91;57.65;95389.31;6126699;23;20164;-84
2023/03/22 01:53:26;;;;;;;4.30;3.90;;;;;;;12.92;57.30;95384.94;6125098;23;20611;-84
2023/03/22 01:55:54;;;;;;;4.30;3.90;;;;;;;12.94;57.24;95381.16;6128620;23;20234;-84
2023/03/22 01:58:20;;;;;;;4.03;3.73;;;;;;;12.95;57.27;95376.81;6128410;23;20282;-84
2023/03/22 02:00:49;;;;;;;4.23;3.80;;;;;;;12.92;57.24;95382.34;6131061;23;20186;-86
2023/03/22 02:03:22;;;;;;;4.30;3.90;;;;;;;12.90;57.27;95379.97;6130299;23;20211;-84
2023/03/22 02:05:49;;;;;;;4.33;4.03;;;;;;;12.89;57.51;95382.78;6131084;23;20160;-85
2023/03/22 02:08:15;;;;;;;4.20;3.90;;;;;;;12.87;57.30;95377.00;6130433;23;20257;-84
2023/03/22 02:10:42;;;;;;;4.53;4.13;;;;;;;12.87;57.36;95382.16;6130212;23;20658;-85
2023/03/22 02:13:25;;;;;;;4.83;4.20;;;;;;;12.84;57.51;95383.34;6130276;23;20176;-86
2023/03/22 02:16:02;;;;;;;4.23;3.60;;;;;;;12.83;57.29;95380.97;6130016;23;20218;-87
2023/03/22 02:18:44;;;;;;;4.33;4.00;;;;;;;12.84;57.34;95380.75;6130399;23;20174;-86
2023/03/22 02:21:37;;;;;;;4.47;3.57;;;;;;;12.80;57.52;95385.53;6129206;23;20164;-85
2023/03/22 02:24:22;;;;;;;3.80;3.50;;;;;;;12.78;57.94;95378.94;6130273;23;20191;-85
2023/03/22 02:27:05;;;;;;;4.00;3.60;;;;;;;12.76;58.15;95375.75;6129408;23;20207;-86
2023/03/22 02:29:43;;;;;;;4.30;3.90;;;;;;;12.77;57.80;95365.22;6129909;23;20195;-85
2023/03/22 02:32:46;;;;;;;4.10;3.70;;;;;;;12.69;58.01;95354.31;6130079;23;20163;-85
2023/03/22 02:35:31;;;;;;;4.00;3.60;;;;;;;12.70;58.83;95359.25;6130171;23;20214;-86
2023/03/22 02:38:31;;;;;;;3.77;3.47;;;;;;;12.70;58.36;95353.31;6129648;23;20198;-85
2023/03/22 02:41:11;;;;;;;4.20;3.80;;;;;;;12.69;58.29;95362.06;6130223;23;20176;-85
2023/03/22 02:43:45;;;;;;;5.83;3.67;;;;;;;12.71;58.14;95366.00;6130242;23;20166;-84
2023/03/22 02:46:16;;;;;;;4.07;3.67;;;;;;;12.71;58.28;95358.25;6131010;23;20191;-84
2023/03/22 02:48:52;;;;;;;4.83;4.10;;;;;;;12.70;58.09;95361.81;6131188;23;20187;-85
2023/03/22 02:51:23;;;;;;;4.47;3.87;;;;;;;12.69;58.39;95362.06;6130856;23;20163;-85
2023/03/22 02:53:55;;;;;;;4.10;3.40;;;;;;;12.70;58.36;95372.16;6129969;23;20160;-85
2023/03/22 02:56:26;;;;;;;3.63;3.33;;;;;;;12.69;58.70;95369.81;6131307;23;20242;-85
2023/03/22 02:58:56;;;;;;;8.10;3.70;;;;;;;12.61;59.37;95369.97;6131006;23;20176;-84
2023/03/22 03:01:27;;;;;;;3.87;3.50;;;;;;;12.58;59.05;95381.47;6130557;23;20171;-86
2023/03/22 03:03:58;;;;;;;4.83;3.50;;;;;;;12.56;59.06;95373.13;6130061;23;20499;-87
2023/03/22 03:06:27;;;;;;;3.90;3.60;;;;;;;12.51;59.24;95375.47;6128609;23;20206;-86
2023/03/22 03:08:56;;;;;;;4.13;3.73;;;;;;;12.50;59.46;95378.28;6130020;23;20199;-85
2023/03/22 03:11:24;;;;;;;4.00;3.67;;;;;;;12.49;59.37;95376.69;6130082;23;20176;-86
2023/03/22 03:13:51;;;;;;;4.63;3.50;;;;;;;12.49;59.45;95376.69;6130033;23;20207;-87
2023/03/22 03:16:21;;;;;;;4.30;3.90;;;;;;;12.46;59.97;95383.03;6128719;23;20179;-84
2023/03/22 03:18:52;;;;;;;7.53;3.97;;;;;;;12.37;60.37;95389.34;6128712;23;20168;-84
2023/03/22 03:21:28;;;;;;;5.23;3.60;;;;;;;12.21;60.90;95384.50;6128947;23;20168;-84
2023/03/22 03:24:02;;;;;;;4.10;3.37;;;;;;;12.25;60.28;95391.66;6129150;23;20214;-86
2023/03/22 03:26:38;;;;;;;4.93;3.80;;;;;;;12.22;60.52;95388.66;6129708;23;20208;-85
2023/03/22 03:29:12;;;;;;;3.97;3.57;;;;;;;12.18;60.56;95390.03;6129869;23;20186;-85
2023/03/22 03:31:45;;;;;;;3.90;3.60;;;;;;;12.04;60.33;95387.38;6129130;23;20215;-86
2023/03/22 03:34:19;;;;;;;4.27;3.90;;;;;;;11.93;60.89;95379.41;6129200;23;20160;-85
2023/03/22 03:36:52;;;;;;;4.27;3.90;;;;;;;11.86;61.04;95386.28;6129449;23;20207;-85
2023/03/22 03:39:20;;;;;;;4.37;3.60;;;;;;;11.75;61.74;95393.50;6129865;23;20214;-85
2023/03/22 03:41:51;;;;;;;4.23;3.83;;;;;;;11.61;61.79;95391.03;6129639;23;20669;-85
2023/03/22 03:44:18;;;;;;;4.67;3.63;;;;;;;11.55;62.29;95390.00;6129288;23;20547;-86
2023/03/22 03:46:46;;;;;;;4.10;3.70;;;;;;;11.50;62.68;95388.97;6129705;23;20200;-84
2023/03/22 03:49:15;;;;;;;4.90;3.83;;;;;;;11.53;62.67;95381.69;6129304;23;20179;-85
2023/03/22 03:51:47;;;;;;;4.03;3.63;;;;;;;11.59;62.41;95388.66;6128658;23;20244;-86
2023/03/22 03:54:14;;;;;;;3.97;3.60;;;;;;;11.62;62.23;95387.47;6128607;23;20729;-85
2023/03/22 03:56:40;;;;;;;4.40;4.00;;;;;;;11.61;62.85;95385.88;6127972;23;20210;-84
2023/03/22 03:59:08;;;;;;;3.80;3.40;;;;;;;11.62;63.22;95379.75;6128556;23;20180;-84
2023/03/22 04:01:35;;;;;;;3.67;3.27;;;;;;;11.65;62.65;95375.00;6127636;23;20180;-86
2023/03/22 04:04:01;;;;;;;4.20;3.40;;;;;;;11.69;63.13;95378.81;6128885;23;20179;-87
2023/03/22 04:06:28;;;;;;;4.03;3.73;;;;;;;11.72;63.00;95372.50;6128907;23;20203;-84
2023/03/22 04:08:55;;;;;;;3.50;3.20;;;;;;;11.75;63.02;95366.94;6129525;23;20203;-85
2023/03/22 04:11:22;;;;;;;4.43;3.60;;;;;;;11.76;63.06;95364.19;6128947;23;20187;-85
2023/03/22 04:13:48;;;;;;;6.33;3.50;;;;;;;11.76;63.20;95368.56;6128743;23;20179;-85
2023/03/22 04:16:16;;;;;;;3.83;3.53;;;;;;;11.80;62.87;95374.94;6129705;23;20179;-86
2023/03/22 04:18:42;;;;;;;3.77;3.40;;;;;;;11.83;62.68;95378.91;6129103;23;20202;-85
2023/03/22 04:21:10;;;;;;;4.07;3.67;;;;;;;11.86;62.66;95375.97;6127716;23;20248;-83
2023/03/22 04:23:37;;;;;;;5.30;3.40;;;;;;;11.81;62.50;95381.69;6128807;23;20263;-85
2023/03/22 04:26:04;;;;;;;4.20;3.80;;;;;;;11.80;62.60;95379.28;6127815;23;20191;-84
2023/03/22 04:28:32;;;;;;;4.70;3.67;;;;;;;11.81;62.63;95380.88;6128304;23;20675;-85
2023/03/22 04:30:58;;;;;;;5.80;4.43;;;;;;;11.81;62.58;95375.72;6128727;23;20203;-86
2023/03/22 04:33:26;;;;;;;3.70;3.40;;;;;;;11.79;62.88;95375.91;6128615;23;20183;-85
2023/03/22 04:35:55;;;;;;;4.00;3.60;;;;;;;11.76;62.52;95376.28;6128465;23;20180;-85
2023/03/22 04:38:22;;;;;;;4.00;3.60;;;;;;;11.77;62.91;95368.38;6126690;23;20374;-84
2023/03/22 04:40:48;;;;;;;5.40;3.70;;;;;;;11.75;62.67;95369.50;6127655;23;20176;-85
2023/03/22 04:43:17;;;;;;;3.97;3.67;;;;;;;11.73;62.60;95369.72;6128542;23;20184;-85
2023/03/22 04:45:45;;;;;;;3.87;3.50;;;;;;;11.69;62.88;95365.91;6127068;23;20203;-85
2023/03/22 04:48:11;;;;;;;4.73;3.43;;;;;;;11.70;62.71;95359.78;6126081;23;20206;-85
2023/03/22 04:50:39;;;;;;;3.90;3.60;;;;;;;11.71;62.73;95363.16;6129377;23;20189;-85
2023/03/22 04:53:06;;;;;;;5.83;3.27;;;;;;;11.75;62.36;95367.72;6128093;23;20175;-85
2023/03/22 04:55:33;;;;;;;4.17;3.77;;;;;;;11.74;62.79;95370.50;6127748;23;20711;-85
2023/03/22 04:58:00;;;;;;;4.83;3.47;;;;;;;11.74;63.18;95365.31;6128887;23;20196;-85
2023/03/22 05:00:30;;;;;;;3.60;3.30;;;;;;;11.75;62.41;95366.94;6128257;23;20190;-85
2023/03/22 05:02:57;;;;;;;3.77;3.37;;;;;;;11.73;62.65;95359.41;6129926;23;20191;-85
2023/03/22 05:05:24;;;;;;;4.00;3.60;;;;;;;11.74;62.79;95371.28;6130377;23;20183;-85
2023/03/22 05:07:55;;;;;;;3.50;3.20;;;;;;;11.75;62.54;95369.50;6131042;23;20250;-85
2023/03/22 05:10:21;;;;;;;3.60;3.30;;;;;;;11.74;62.58;95368.72;6133323;23;20223;-85
2023/03/22 05:12:48;;;;;;;3.97;3.20;;;;;;;11.75;62.55;95370.31;6131858;23;20179;-86
2023/03/22 05:15:14;;;;;;;5.50;3.40;;;;;;;11.74;62.16;95373.06;6128771;23;20210;-86
2023/03/22 05:17:41;;;;;;;3.63;3.27;;;;;;;11.71;62.35;95369.09;6131442;23;20262;-86
2023/03/22 05:20:09;;;;;;;3.60;3.30;;;;;;;11.70;62.03;95366.72;6132034;23;20246;-84
2023/03/22 05:22:39;;;;;;;4.90;3.40;;;;;;;11.71;62.30;95365.72;6130273;23;20238;-87
2023/03/22 05:25:09;;;;;;;4.37;3.50;;;;;;;11.71;62.17;95379.44;6130710;23;20197;-84
2023/03/22 05:27:37;;;;;;;5.57;3.40;;;;;;;11.69;61.91;95375.44;6129589;23;20203;-86
2023/03/22 05:30:05;;;;;;;3.90;3.50;;;;;;;11.72;62.15;95375.88;6131119;23;20180;-85
2023/03/22 05:32:31;;;;;;;4.67;3.37;;;;;;;11.72;61.77;95381.03;6129528;23;20238;-88
2023/03/22 05:35:02;;;;;;;4.97;3.50;;;;;;;11.74;62.09;95379.03;6129815;23;20182;-85
2023/03/22 05:37:28;;;;;;;3.50;3.20;;;;;;;11.70;62.71;95372.69;6129761;23;20199;-85
2023/03/22 05:39:55;;;;;;;4.03;3.23;;;;;;;11.74;62.44;95375.66;6128622;23;20297;-85
2023/03/22 05:42:23;;;;;;;4.47;3.53;;;;;;;11.77;62.41;95377.88;6126606;23;20187;-85
2023/03/22 05:44:49;;;;;;;3.53;3.23;;;;;;;11.83;62.23;95381.50;6127005;23;20205;-84
2023/03/22 05:47:15;;;;;;;4.80;3.60;;;;;;;11.80;61.99;95374.13;6125712;23;20242;-86
2023/03/22 05:49:42;;;;;;;4.03;3.53;;;;;;;11.81;61.87;95375.72;6128690;23;20195;-86
2023/03/22 05:52:08;;;;;;;4.10;3.70;;;;;;;11.83;62.15;95377.13;6128263;23;20199;-85
2023/03/22 05:54:35;;;;;;;10.17;3.70;;;;;;;11.87;65.67;95380.94;6127047;23;20704;-88
2023/03/22 05:57:01;;;;;;;6.00;2.97;;;;;;;12.19;68.44;95376.13;6117875;23;20765;-88
2023/03/22 05:59:35;;;;;;;7.30;3.10;;;;;;;12.56;66.91;95373.13;6119165;23;20635;-88
2023/03/22 06:02:35;;;;;;;6.93;3.80;;;;;;;12.91;65.63;95373.81;6117729;23;20523;-89
2023/03/22 06:05:03;;;;;;;8.47;3.97;;;;;;;13.13;64.40;95379.63;6119515;23;20191;-88
2023/03/22 06:07:30;;;;;;;7.63;3.57;;;;;;;13.25;63.78;95372.91;6119168;23;20195;-87
2023/03/22 06:10:00;;;;;;;9.00;3.17;;;;;;;13.46;62.33;95372.72;6119659;23;20183;-89
2023/03/22 06:12:26;;;;;;;4.20;3.73;;;;;;;13.47;58.17;95371.69;6125971;23;20171;-87
2023/03/22 06:14:54;;;;;;;3.88;3.35;;;;;;;13.38;58.78;95387.63;6126489;23;20242;-86
2023/03/22 06:17:20;;;;;;;7.63;6.27;;;;;;;13.17;57.73;95377.47;6127054;23;20223;-87
2023/03/22 06:19:47;;;;;;;4.13;3.60;;;;;;;13.01;57.95;95374.25;6127494;23;20179;-86
2023/03/22 06:22:13;;;;;;;13.27;8.60;;;;;;;12.92;58.56;95379.78;6127900;23;20176;-87
2023/03/22 06:24:41;;;;;;;6.20;4.00;;;;;;;12.83;58.23;95383.53;6128472;23;20554;-88
2023/03/22 06:27:08;;;;;;;5.40;3.30;;;;;;;12.78;58.26;95382.34;6126102;23;20219;-85
2023/03/22 06:29:35;;;;;;;4.50;3.10;;;;;;;12.76;58.14;95378.34;6127699;23;20200;-85
2023/03/22 06:32:03;;;;;;;4.30;3.00;;;;;;;12.77;58.13;95379.94;6128240;23;20183;-85
2023/03/22 06:34:30;;;;;;;3.33;2.70;;;;;;;12.79;58.31;95377.97;6126967;23;20180;-86
2023/03/22 06:36:56;;;;;;;2.77;2.57;;;;;;;12.80;58.02;95376.97;6127444;23;20200;-87
2023/03/22 06:39:23;;;;;;;3.20;2.90;;;;;;;12.91;57.68;95378.97;6127734;23;20176;-85
2023/03/22 06:41:50;;;;;;;3.27;2.97;;;;;;;13.03;57.06;95377.44;6127429;23;20423;-86
2023/03/22 06:44:16;;;;;;;4.87;2.60;;;;;;;13.08;56.53;95364.69;6126534;23;20180;-85
2023/03/22 06:46:43;;;;;;;3.60;2.80;;;;;;;13.20;56.35;95372.69;6128140;23;20247;-86
2023/03/22 06:49:11;;;;;;;5.17;2.67;;;;;;;13.31;56.09;95376.47;6127996;23;20227;-85
2023/03/22 06:51:37;;;;;;;3.30;3.00;;;;;;;13.51;56.00;95379.06;6128210;23;20190;-85
2023/03/22 06:54:04;;;;;;;4.63;3.00;;;;;;;13.73;55.26;95383.84;6129986;23;20183;-84
2023/03/22 06:56:30;;;;;;;3.70;2.50;;;;;;;13.87;54.75;95389.78;6130989;23;20203;-86
2023/03/22 06:58:57;;;;;;;2.93;2.63;;;;;;;13.98;54.14;95385.78;6130716;23;20210;-86
2023/03/22 07:01:24;;;;;;;3.23;2.50;;;;;;;14.14;53.96;95380.97;6128341;23;20192;-86
2023/03/22 07:03:51;;;;;;;4.50;2.30;;;;;;;14.30;53.26;95387.50;6131216;23;20175;-85
2023/03/22 07:06:19;;;;;;;2.87;2.53;;;;;;;14.48;52.75;95385.06;6132156;23;20176;-85
2023/03/22 07:08:45;;;;;;;5.38;2.65;;;;;;;14.69;52.36;95385.78;6131583;23;20523;-86
2023/03/22 07:11:12;;;;;;;3.90;3.47;;;;;;;14.88;52.43;95390.06;6131970;23;20180;-86
2023/03/22 07:13:38;;;;;;;6.05;2.90;;;;;;;14.92;51.41;95390.47;6133561;23;20663;-85
2023/03/22 07:16:06;;;;;;;4.30;2.63;;;;;;;14.96;51.29;95394.22;6132821;23;20176;-86
2023/03/22 07:18:32;;;;;;;2.97;2.28;;;;;;;15.04;50.09;95391.38;6133625;23;20733;-87
2023/03/22 07:20:59;;;;;;;6.57;2.35;;;;;;;15.11;50.31;95395.53;6131734;23;20255;-86
2023/03/22 07:23:26;;;;;;;3.90;1.90;;;;;;;15.11;49.92;95395.53;6131380;23;20182;-87
2023/03/22 07:25:54;;;;;;;2.53;2.20;;;;;;;15.25;49.69;95390.25;6131592;23;20249;-86
2023/03/22 07:28:21;;;;;;;2.80;2.20;;;;;;;15.31;49.21;95394.63;6131519;23;20207;-86
2023/03/22 07:30:47;;;;;;;5.05;2.30;;;;;;;15.47;49.66;95391.50;6133388;23;20183;-86
2023/03/22 07:33:14;;;;;;;2.00;1.90;;;;;;;15.35;49.05;95393.19;6132978;23;20179;-87
2023/03/22 07:35:40;;;;;;;2.67;2.03;;;;;;;15.41;49.58;95387.94;6132497;23;20203;-87
2023/03/22 07:38:07;;;;;;;2.50;2.30;;;;;;;15.56;49.69;95387.69;6132098;23;20199;-86
2023/03/22 07:40:34;;;;;;;2.47;2.10;;;;;;;15.67;48.66;95392.16;6132797;23;20179;-87
2023/03/22 07:43:01;;;;;;;2.35;2.15;;;;;;;15.74;48.46;95385.13;6134187;23;20180;-86
2023/03/22 07:45:27;;;;;;;4.32;2.30;;;;;;;16.00;48.52;95389.25;6133787;23;20185;-86
2023/03/22 07:47:54;;;;;;;2.60;2.40;;;;;;;16.16;48.24;95396.50;6132346;23;20206;-86
2023/03/22 07:50:20;;;;;;;4.00;2.78;;;;;;;16.24;47.13;95391.03;6132477;23;20196;-88
2023/03/22 07:52:47;;;;;;;2.60;2.40;;;;;;;16.24;46.79;95392.81;6132879;23;20179;-86
2023/03/22 07:55:14;;;;;;;6.93;4.90;;;;;;;16.34;47.54;95394.94;6132429;23;20239;-86
2023/03/22 07:57:42;;;;;;;6.00;4.10;;;;;;;16.54;46.73;95387.72;6133490;23;20206;-87
2023/03/22 08:00:10;;;;;;;6.82;2.85;;;;;;;16.83;46.47;95391.38;6133702;23;20242;-86
2023/03/22 08:02:37;;;;;;;5.90;2.70;;;;;;;16.92;45.88;95390.84;6132968;23;20190;-86
2023/03/22 08:05:04;;;;;;;2.60;2.40;;;;;;;17.01;45.56;95390.53;6132884;23;20179;-86
2023/03/22 08:07:31;;;;;;;3.47;2.70;;;;;;;17.05;45.24;95389.09;6134487;23;20505;-87
2023/03/22 08:09:57;;;;;;;3.28;2.97;;;;;;;17.23;45.26;95397.63;6132797;23;20226;-86
2023/03/22 08:12:26;;;;;;;4.32;3.38;;;;;;;17.37;45.55;95387.81;6132714;23;20212;-86
2023/03/22 08:14:54;;;;;;;4.72;3.10;;;;;;;17.75;45.10;95391.84;6133302;23;20182;-87
2023/03/22 08:17:21;;;;;;;4.15;3.20;;;;;;;18.11;45.00;95390.81;6133326;23;20195;-86
2023/03/22 08:19:48;;;;;;;4.15;3.15;;;;;;;18.25;43.88;95386.97;6133350;23;20179;-85
2023/03/22 08:22:15;;;;;;;4.80;3.00;;;;;;;18.32;43.55;95389.44;6132291;23;20172;-86
2023/03/22 08:24:41;;;;;;;4.20;2.97;;;;;;;18.50;43.13;95384.06;6131622;23;20258;-87
2023/03/22 08:27:08;;;;;;;3.35;3.05;;;;;;;18.69;43.11;95380.31;6131888;23;20254;-86
2023/03/22 08:29:37;;;;;;;3.10;2.75;;;;;;;18.66;43.00;95380.00;6129594;23;20203;-88
2023/03/22 08:32:05;;;;;;;3.10;2.90;;;;;;;18.77;42.92;95377.34;6130443;23;20200;-86
2023/03/22 08:34:32;;;;;;;3.15;2.90;;;;;;;18.86;41.92;95378.53;6132312;23;20257;-87
2023/03/22 08:37:03;;;;;;;3.33;3.10;;;;;;;19.13;42.41;95380.59;6130985;23;20199;-86
2023/03/22 08:39:29;;;;;;;5.03;3.10;;;;;;;19.54;42.65;95382.91;6132448;23;20174;-87
2023/03/22 08:41:56;;;;;;;3.17;2.88;;;;;;;19.78;41.68;95380.13;6133682;23;20180;-85
2023/03/22 08:44:24;;;;;;;3.50;3.15;;;;;;;19.98;41.79;95375.19;6133223;23;20183;-86
2023/03/22 08:46:51;;;;;;;3.78;3.25;;;;;;;20.15;40.81;95375.97;6133876;23;20863;-86
2023/03/22 08:49:19;;;;;;;4.45;3.58;;;;;;;20.13;40.54;95370.19;6133149;23;20259;-87
2023/03/22 08:51:45;;;;;;;4.75;3.72;;;;;;;20.34;40.85;95368.63;6131162;23;20179;-87
2023/03/22 08:54:12;;;;;;;3.92;3.63;;;;;;;20.29;40.47;95368.53;6129897;23;20401;-87
2023/03/22 08:56:38;;;;;;;4.60;3.60;;;;;;;20.45;40.30;95366.94;6124751;23;20202;-87
2023/03/22 08:59:06;;;;;;;5.03;3.90;;;;;;;20.37;39.71;95370.78;6129535;23;20176;-86
2023/03/22 09:01:34;;;;;;;3.97;3.47;;;;;;;20.07;37.88;95368.50;6131269;23;20181;-88
2023/03/22 09:04:00;;;;;;;3.33;3.05;;;;;;;20.25;38.06;95362.22;6132089;23;20199;-86
2023/03/22 09:06:28;;;;;;;3.83;3.15;;;;;;;20.14;37.71;95371.75;6132634;23;20266;-88
2023/03/22 09:08:55;;;;;;;6.65;3.47;;;;;;;20.42;38.13;95365.59;6129377;23;20316;-87
2023/03/22 09:11:22;;;;;;;5.78;3.47;;;;;;;20.39;37.29;95365.31;6130296;23;20259;-86
2023/03/22 09:13:49;;;;;;;4.28;3.40;;;;;;;20.19;37.70;95352.75;6130074;23;20183;-86
2023/03/22 09:16:16;;;;;;;3.03;2.65;;;;;;;20.34;37.73;95352.94;6130245;23;20183;-87
2023/03/22 09:18:44;;;;;;;9.38;8.15;;;;;;;20.61;37.32;95353.78;6130664;23;20180;-87
2023/03/22 09:21:11;;;;;;;5.57;4.15;;;;;;;20.53;36.78;95350.81;6131101;23;20175;-87
2023/03/22 09:23:40;;;;;;;3.30;3.00;;;;;;;20.65;36.75;95354.09;6131492;23;20736;-85
2023/03/22 09:26:09;;;;;;;3.55;3.13;;;;;;;20.63;36.81;95346.50;6131307;23;20249;-86
2023/03/22 09:28:36;;;;;;;4.32;2.95;;;;;;;20.54;36.49;95341.94;6131339;23;20195;-88
2023/03/22 09:31:16;;;;;;;2.95;2.65;;;;;;;20.87;36.10;95343.59;6132356;23;20262;-85
2023/03/22 09:33:42;;;;;;;4.90;3.17;;;;;;;21.17;36.25;95346.50;6130339;23;20183;-87
2023/03/22 09:36:10;;;;;;;2.72;2.53;;;;;;;21.14;35.60;95335.75;6130813;23;20563;-87
2023/03/22 09:38:40;;;;;;;3.22;2.90;;;;;;;21.35;35.38;95343.56;6131653;23;20226;-87
2023/03/22 09:41:12;;;;;;;3.72;2.85;;;;;;;21.47;35.73;95324.25;6131578;23;20179;-87
2023/03/22 09:43:42;;;;;;;2.78;2.53;;;;;;;21.61;35.32;95331.44;6132607;23;20230;-86
2023/03/22 09:46:17;;;;;;;2.22;2.08;;;;;;;21.63;34.79;95331.19;6132089;23;20179;-87
2023/03/22 09:48:46;;;;;;;4.00;2.72;;;;;;;21.55;34.98;95334.28;6122852;23;20226;-86
2023/03/22 09:51:30;;;;;;;2.80;2.60;;;;;;;21.42;34.72;95332.06;6122387;23;20180;-86
2023/03/22 09:53:58;;;;;;;3.20;2.90;;;;;;;20.99;35.05;95331.16;6122700;23;20160;-86
2023/03/22 09:56:29;;;;;;;3.75;2.55;;;;;;;21.09;35.48;95322.63;6121959;23;20326;-86
2023/03/22 09:59:06;;;;;;;3.05;2.85;;;;;;;20.80;35.47;95328.09;6122657;23;20481;-86
2023/03/22 10:01:38;;;;;;;4.07;3.05;;;;;;;20.83;35.90;95321.56;6122677;23;20164;-86
2023/03/22 10:04:25;;;;;;;2.55;2.33;;;;;;;21.13;35.70;95318.47;6123975;23;20482;-86
2023/03/22 10:07:00;;;;;;;3.70;2.70;;;;;;;21.37;35.44;95307.41;6122555;23;20282;-86
2023/03/22 10:09:35;;;;;;;2.83;2.60;;;;;;;21.42;35.14;95311.91;6123204;23;20215;-86
2023/03/22 10:12:10;;;;;;;2.70;2.50;;;;;;;21.44;35.14;95309.84;6122416;23;20163;-86
2023/03/22 10:14:40;;;;;;;3.78;2.40;;;;;;;21.51;34.71;95299.94;6123999;23;20163;-86
2023/03/22 10:17:11;;;;;;;2.55;2.30;;;;;;;21.50;34.73;95308.03;6132614;23;20200;-86
2023/03/22 10:19:50;;;;;;;2.53;2.33;;;;;;;21.68;34.98;95297.16;6133551;23;20167;-86
2023/03/22 10:22:23;;;;;;;2.40;2.20;;;;;;;21.63;34.15;95302.38;6134356;23;20171;-87
2023/03/22 10:24:54;;;;;;;2.83;2.63;;;;;;;21.73;34.33;95294.59;6134288;23;20187;-86
2023/03/22 10:27:23;;;;;;;2.80;2.60;;;;;;;21.81;34.05;95290.69;6133932;23;20199;-86
2023/03/22 10:29:59;;;;;;;2.80;2.60;;;;;;;21.95;34.00;95295.22;6134189;23;20246;-86
2023/03/22 10:32:31;;;;;;;2.95;2.40;;;;;;;21.86;34.26;95298.56;6134063;23;20218;-86
2023/03/22 10:34:58;;;;;;;2.85;2.47;;;;;;;21.88;34.73;95283.38;6135575;23;20174;-86
2023/03/22 10:37:31;;;;;;;3.00;2.20;;;;;;;21.98;34.14;95286.03;6133801;23;20449;-88
2023/03/22 10:40:06;;;;;;;3.70;2.67;;;;;;;21.88;34.58;95280.75;6134767;23;20294;-87
2023/03/22 10:42:36;;;;;;;4.53;2.85;;;;;;;21.75;34.32;95284.59;6133046;23;20163;-86
2023/03/22 10:45:05;;;;;;;2.72;2.53;;;;;;;21.63;33.25;95282.19;6133255;23;20179;-87
2023/03/22 10:47:36;;;;;;;3.75;2.00;;;;;;;21.66;33.90;95280.91;6134263;23;20203;-86
2023/03/22 10:50:07;;;;;;;2.20;2.00;;;;;;;21.74;33.43;95272.56;6133089;23;20189;-86
2023/03/22 10:52:42;;;;;;;1.90;1.70;;;;;;;21.77;32.58;95276.50;6133053;23;20164;-88
2023/03/22 10:55:12;;;;;;;2.17;1.98;;;;;;;21.80;32.56;95281.22;6133860;23;20163;-86
2023/03/22 10:57:41;;;;;;;2.15;1.95;;;;;;;21.86;32.98;95269.75;6134362;23;20730;-86
2023/03/22 11:00:11;;;;;;;3.28;2.22;;;;;;;21.76;33.53;95273.09;6129222;23;20249;-88
2023/03/22 11:02:46;;;;;;;2.03;1.90;;;;;;;21.74;33.40;95269.97;6131443;23;20179;-87
2023/03/22 11:05:21;;;;;;;2.30;2.10;;;;;;;21.89;34.19;95270.03;6131361;23;20226;-86
2023/03/22 11:07:48;;;;;;;2.22;1.98;;;;;;;21.76;33.05;95272.28;6128719;23;20195;-86
2023/03/22 11:10:26;;;;;;;2.08;1.75;;;;;;;21.75;32.97;95275.97;6130303;23;20229;-87
2023/03/22 11:12:55;;;;;;;2.20;2.10;;;;;;;21.43;33.00;95274.19;6131092;23;20183;-87
2023/03/22 11:15:32;;;;;;;2.40;2.20;;;;;;;21.41;33.50;95278.09;6131298;23;20243;-88
2023/03/22 11:18:04;;;;;;;3.33;2.00;;;;;;;21.53;33.86;95270.88;6131745;23;20210;-87
2023/03/22 11:20:32;;;;;;;2.70;2.03;;;;;;;21.48;34.12;95276.88;6130913;23;20224;-87
2023/03/22 11:23:01;;;;;;;3.00;2.28;;;;;;;21.41;33.27;95265.81;6131374;23;20198;-87
2023/03/22 11:25:31;;;;;;;3.50;1.65;;;;;;;21.49;33.76;95267.16;6130734;23;20660;-87
2023/03/22 11:28:08;;;;;;;3.38;2.03;;;;;;;21.52;33.99;95266.69;6131638;23;20199;-87
2023/03/22 11:30:35;;;;;;;9.23;2.20;;;;;;;21.69;34.73;95264.69;6131409;23;20267;-87
2023/03/22 11:33:16;;;;;;;2.28;2.08;;;;;;;21.80;33.87;95258.44;6130383;23;20184;-87
2023/03/22 11:35:45;;;;;;;2.50;2.00;;;;;;;21.75;34.25;95255.78;6130561;23;20163;-86
2023/03/22 11:38:23;;;;;;;3.80;2.20;;;;;;;21.80;33.82;95252.41;6129077;23;20539;-88
2023/03/22 11:40:55;;;;;;;2.22;2.05;;;;;;;21.82;34.94;95251.09;6130667;23;20156;-87
2023/03/22 11:43:24;;;;;;;3.17;2.50;;;;;;;21.93;33.71;95246.72;6131108;23;20171;-86
2023/03/22 11:45:56;;;;;;;1.98;1.88;;;;;;;21.96;33.03;95241.72;6131815;23;20179;-87